< < Back
Terminal Aerodrome Forecast


Current Version              Previous Versions:   1  2  3  4  5  6  7  8  9  

Terminal Aerodrome Forecast

252
FTUS44 KOHX 300300 AAB
TAFCSV
TAF AMD
KCSV 300300Z 3003/3024 33013G23KT 3SM BR BKN008 OVC015
     FM300600 32008G15KT P6SM OVC025
     FM300900 32007KT P6SM OVC015
     FM301700 36010G17KT P6SM SCT050=

Latest METAR

984
SAUS70 KWBC 300500 RRD
MTRCSV
METAR KCSV 300453Z AUTO 33012G22KT 10SM OVC019 02/M02 A3022 RMK AO2
SLP237 T00221022


USA.gov is the U.S. government's official web portal to all federal, state and local government web resources and services.